sensor_id;sensor_type;location;lat;lon;timestamp;P1;durP1;ratioP1;P2;durP2;ratioP2
45382;SDS011;42455;51.660;5.824;2023-02-05T00:01:26;26.0;;;15.0;;
45382;SDS011;42455;51.660;5.824;2023-02-05T00:06:33;25.0;;;15.0;;
45382;SDS011;42455;51.660;5.824;2023-02-05T00:11:39;26.0;;;15.0;;
45382;SDS011;42455;51.660;5.824;2023-02-05T00:16:44;28.0;;;16.0;;
45382;SDS011;42455;51.660;5.824;2023-02-05T00:21:50;26.0;;;15.0;;
45382;SDS011;42455;51.660;5.824;2023-02-05T00:26:55;27.0;;;16.0;;
45382;SDS011;42455;51.660;5.824;2023-02-05T00:32:02;28.5;;;17.0;;
45382;SDS011;42455;51.660;5.824;2023-02-05T00:37:08;33.0;;;17.5;;
45382;SDS011;42455;51.660;5.824;2023-02-05T00:42:14;29.0;;;17.0;;
45382;SDS011;42455;51.660;5.824;2023-02-05T00:47:20;29.0;;;17.0;;
45382;SDS011;42455;51.660;5.824;2023-02-05T00:52:28;28.5;;;17.0;;
45382;SDS011;42455;51.660;5.824;2023-02-05T00:57:33;28.5;;;18.0;;
45382;SDS011;42455;51.660;5.824;2023-02-05T01:02:40;32.5;;;19.5;;
45382;SDS011;42455;51.660;5.824;2023-02-05T01:07:45;36.0;;;21.0;;
45382;SDS011;42455;51.660;5.824;2023-02-05T01:12:51;35.0;;;22.0;;
45382;SDS011;42455;51.660;5.824;2023-02-05T01:17:57;36.5;;;23.0;;
45382;SDS011;42455;51.660;5.824;2023-02-05T01:23:04;43.0;;;25.5;;
45382;SDS011;42455;51.660;5.824;2023-02-05T01:28:10;43.5;;;26.0;;
45382;SDS011;42455;51.660;5.824;2023-02-05T01:33:16;45.0;;;28.0;;
45382;SDS011;42455;51.660;5.824;2023-02-05T01:38:22;46.0;;;29.0;;
45382;SDS011;42455;51.660;5.824;2023-02-05T01:43:28;48.0;;;30.0;;
45382;SDS011;42455;51.660;5.824;2023-02-05T01:48:35;52.0;;;32.0;;
45382;SDS011;42455;51.660;5.824;2023-02-05T01:53:41;53.5;;;33.0;;
45382;SDS011;42455;51.660;5.824;2023-02-05T01:58:48;52.5;;;33.0;;
45382;SDS011;42455;51.660;5.824;2023-02-05T02:03:57;52.5;;;34.0;;
45382;SDS011;42455;51.660;5.824;2023-02-05T02:09:00;56.0;;;36.0;;
45382;SDS011;42455;51.660;5.824;2023-02-05T02:14:06;52.5;;;35.0;;
45382;SDS011;42455;51.660;5.824;2023-02-05T02:19:12;52.0;;;34.0;;
45382;SDS011;42455;51.660;5.824;2023-02-05T02:25:51;47.0;;;33.0;;
45382;SDS011;42455;51.660;5.824;2023-02-05T02:29:24;45.5;;;32.0;;
45382;SDS011;42455;51.660;5.824;2023-02-05T02:34:40;45.5;;;33.0;;
45382;SDS011;42455;51.660;5.824;2023-02-05T02:39:35;46.0;;;32.0;;
45382;SDS011;42455;51.660;5.824;2023-02-05T02:44:42;43.0;;;32.0;;
45382;SDS011;42455;51.660;5.824;2023-02-05T02:49:48;42.5;;;31.0;;
45382;SDS011;42455;51.660;5.824;2023-02-05T02:54:55;44.0;;;31.0;;
45382;SDS011;42455;51.660;5.824;2023-02-05T03:00:00;38.5;;;30.0;;
45382;SDS011;42455;51.660;5.824;2023-02-05T03:05:07;38.0;;;30.0;;
45382;SDS011;42455;51.660;5.824;2023-02-05T03:10:21;38.0;;;30.0;;
45382;SDS011;42455;51.660;5.824;2023-02-05T03:15:18;40.0;;;30.0;;
45382;SDS011;42455;51.660;5.824;2023-02-05T03:20:27;38.0;;;29.5;;
45382;SDS011;42455;51.660;5.824;2023-02-05T03:25:31;36.0;;;29.0;;
45382;SDS011;42455;51.660;5.824;2023-02-05T03:30:45;35.0;;;30.0;;
45382;SDS011;42455;51.660;5.824;2023-02-05T03:36:31;37.5;;;29.0;;
45382;SDS011;42455;51.660;5.824;2023-02-05T03:41:49;36.0;;;28.0;;
45382;SDS011;42455;51.660;5.824;2023-02-05T03:47:15;36.0;;;28.0;;
45382;SDS011;42455;51.660;5.824;2023-02-05T03:52:18;34.0;;;28.0;;
45382;SDS011;42455;51.660;5.824;2023-02-05T03:56:12;33.0;;;27.0;;
45382;SDS011;42455;51.660;5.824;2023-02-05T04:01:14;34.0;;;27.0;;
45382;SDS011;42455;51.660;5.824;2023-02-05T04:06:20;31.0;;;26.0;;
45382;SDS011;42455;51.660;5.824;2023-02-05T04:11:26;30.0;;;24.0;;
45382;SDS011;42455;51.660;5.824;2023-02-05T04:16:32;30.5;;;24.0;;
45382;SDS011;42455;51.660;5.824;2023-02-05T04:21:38;28.0;;;23.0;;
45382;SDS011;42455;51.660;5.824;2023-02-05T04:26:44;26.0;;;21.0;;
45382;SDS011;42455;51.660;5.824;2023-02-05T04:31:50;24.0;;;19.0;;
45382;SDS011;42455;51.660;5.824;2023-02-05T04:36:57;24.0;;;19.0;;
45382;SDS011;42455;51.660;5.824;2023-02-05T04:42:03;25.0;;;19.0;;
45382;SDS011;42455;51.660;5.824;2023-02-05T04:47:09;21.0;;;18.0;;
45382;SDS011;42455;51.660;5.824;2023-02-05T04:52:14;21.0;;;16.0;;
45382;SDS011;42455;51.660;5.824;2023-02-05T04:57:20;20.0;;;16.0;;
45382;SDS011;42455;51.660;5.824;2023-02-05T05:02:27;19.0;;;15.0;;
45382;SDS011;42455;51.660;5.824;2023-02-05T05:07:33;18.0;;;15.0;;
45382;SDS011;42455;51.660;5.824;2023-02-05T05:12:39;17.0;;;14.0;;
45382;SDS011;42455;51.660;5.824;2023-02-05T05:17:45;16.0;;;13.0;;
45382;SDS011;42455;51.660;5.824;2023-02-05T05:22:52;17.0;;;12.0;;
45382;SDS011;42455;51.660;5.824;2023-02-05T05:27:58;15.0;;;11.0;;
45382;SDS011;42455;51.660;5.824;2023-02-05T05:33:04;13.0;;;10.5;;
45382;SDS011;42455;51.660;5.824;2023-02-05T05:38:10;15.0;;;10.0;;
45382;SDS011;42455;51.660;5.824;2023-02-05T05:43:17;13.0;;;10.0;;
45382;SDS011;42455;51.660;5.824;2023-02-05T05:48:23;13.0;;;10.0;;
45382;SDS011;42455;51.660;5.824;2023-02-05T05:53:31;15.0;;;10.0;;
45382;SDS011;42455;51.660;5.824;2023-02-05T05:58:34;13.5;;;10.0;;
45382;SDS011;42455;51.660;5.824;2023-02-05T06:03:40;14.0;;;10.0;;
45382;SDS011;42455;51.660;5.824;2023-02-05T06:08:45;13.0;;;10.0;;
45382;SDS011;42455;51.660;5.824;2023-02-05T06:13:52;13.0;;;10.0;;
45382;SDS011;42455;51.660;5.824;2023-02-05T06:18:57;12.5;;;11.0;;
45382;SDS011;42455;51.660;5.824;2023-02-05T06:24:03;15.0;;;11.0;;
45382;SDS011;42455;51.660;5.824;2023-02-05T06:29:09;14.0;;;11.0;;
45382;SDS011;42455;51.660;5.824;2023-02-05T06:34:16;14.0;;;11.0;;
45382;SDS011;42455;51.660;5.824;2023-02-05T06:39:22;13.0;;;10.0;;
45382;SDS011;42455;51.660;5.824;2023-02-05T06:44:28;10.0;;;9.0;;
45382;SDS011;42455;51.660;5.824;2023-02-05T06:49:34;8.5;;;7.0;;
45382;SDS011;42455;51.660;5.824;2023-02-05T06:54:40;4.0;;;3.0;;
45382;SDS011;42455;51.660;5.824;2023-02-05T06:59:46;5.0;;;1.0;;
45382;SDS011;42455;51.660;5.824;2023-02-05T07:04:53;6.0;;;1.0;;
45382;SDS011;42455;51.660;5.824;2023-02-05T07:09:59;4.0;;;1.0;;
45382;SDS011;42455;51.660;5.824;2023-02-05T07:15:05;4.0;;;1.0;;
45382;SDS011;42455;51.660;5.824;2023-02-05T07:20:11;4.0;;;1.0;;
45382;SDS011;42455;51.660;5.824;2023-02-05T07:25:18;4.0;;;1.0;;
45382;SDS011;42455;51.660;5.824;2023-02-05T07:30:24;3.0;;;1.0;;
45382;SDS011;42455;51.660;5.824;2023-02-05T07:35:30;4.0;;;1.0;;
45382;SDS011;42455;51.660;5.824;2023-02-05T07:40:36;4.0;;;1.0;;
45382;SDS011;42455;51.660;5.824;2023-02-05T07:45:42;3.0;;;1.0;;
45382;SDS011;42455;51.660;5.824;2023-02-05T07:50:49;5.0;;;1.0;;
45382;SDS011;42455;51.660;5.824;2023-02-05T07:55:55;6.0;;;1.0;;
45382;SDS011;42455;51.660;5.824;2023-02-05T08:01:01;4.0;;;1.0;;
45382;SDS011;42455;51.660;5.824;2023-02-05T08:06:07;6.0;;;1.0;;
45382;SDS011;42455;51.660;5.824;2023-02-05T08:11:13;5.0;;;1.0;;
45382;SDS011;42455;51.660;5.824;2023-02-05T08:16:18;6.0;;;1.0;;
45382;SDS011;42455;51.660;5.824;2023-02-05T08:21:24;4.0;;;1.0;;
45382;SDS011;42455;51.660;5.824;2023-02-05T08:26:30;5.0;;;1.0;;
45382;SDS011;42455;51.660;5.824;2023-02-05T08:31:36;7.5;;;2.0;;
45382;SDS011;42455;51.660;5.824;2023-02-05T08:36:43;5.0;;;1.0;;
45382;SDS011;42455;51.660;5.824;2023-02-05T08:41:49;6.0;;;1.0;;
45382;SDS011;42455;51.660;5.824;2023-02-05T08:46:55;6.0;;;1.5;;
45382;SDS011;42455;51.660;5.824;2023-02-05T08:52:01;9.0;;;2.0;;
45382;SDS011;42455;51.660;5.824;2023-02-05T08:57:07;9.0;;;2.0;;
45382;SDS011;42455;51.660;5.824;2023-02-05T09:02:14;8.0;;;2.0;;
45382;SDS011;42455;51.660;5.824;2023-02-05T09:07:20;10.0;;;2.0;;
45382;SDS011;42455;51.660;5.824;2023-02-05T09:12:26;10.0;;;2.0;;
45382;SDS011;42455;51.660;5.824;2023-02-05T09:17:32;9.0;;;2.0;;
45382;SDS011;42455;51.660;5.824;2023-02-05T09:22:38;10.0;;;2.0;;
45382;SDS011;42455;51.660;5.824;2023-02-05T09:27:45;10.0;;;2.0;;
45382;SDS011;42455;51.660;5.824;2023-02-05T09:32:51;13.0;;;2.5;;
45382;SDS011;42455;51.660;5.824;2023-02-05T09:37:57;12.5;;;3.0;;
45382;SDS011;42455;51.660;5.824;2023-02-05T09:43:37;11.0;;;2.0;;
45382;SDS011;42455;51.660;5.824;2023-02-05T09:48:51;13.0;;;3.0;;
45382;SDS011;42455;51.660;5.824;2023-02-05T09:53:18;11.0;;;3.0;;
45382;SDS011;42455;51.660;5.824;2023-02-05T09:58:23;15.0;;;3.0;;
45382;SDS011;42455;51.660;5.824;2023-02-05T10:03:54;13.0;;;3.0;;
45382;SDS011;42455;51.660;5.824;2023-02-05T10:09:37;14.0;;;3.0;;
45382;SDS011;42455;51.660;5.824;2023-02-05T10:14:10;14.0;;;3.0;;
45382;SDS011;42455;51.660;5.824;2023-02-05T10:20:47;13.0;;;3.0;;
45382;SDS011;42455;51.660;5.824;2023-02-05T10:26:14;11.5;;;3.0;;
45382;SDS011;42455;51.660;5.824;2023-02-05T10:30:02;15.0;;;3.0;;
45382;SDS011;42455;51.660;5.824;2023-02-05T10:34:32;15.0;;;4.0;;
45382;SDS011;42455;51.660;5.824;2023-02-05T10:39:25;13.5;;;3.0;;
45382;SDS011;42455;51.660;5.824;2023-02-05T10:44:23;14.0;;;4.0;;
45382;SDS011;42455;51.660;5.824;2023-02-05T10:49:36;12.0;;;3.0;;
45382;SDS011;42455;51.660;5.824;2023-02-05T10:54:30;13.0;;;3.0;;
45382;SDS011;42455;51.660;5.824;2023-02-05T10:59:36;11.0;;;3.0;;
45382;SDS011;42455;51.660;5.824;2023-02-05T11:04:46;13.0;;;3.0;;
45382;SDS011;42455;51.660;5.824;2023-02-05T11:09:48;13.0;;;3.0;;
45382;SDS011;42455;51.660;5.824;2023-02-05T11:14:55;10.0;;;3.0;;
45382;SDS011;42455;51.660;5.824;2023-02-05T11:20:03;14.0;;;3.0;;
45382;SDS011;42455;51.660;5.824;2023-02-05T11:25:11;14.0;;;3.0;;
45382;SDS011;42455;51.660;5.824;2023-02-05T11:30:36;15.5;;;3.0;;
45382;SDS011;42455;51.660;5.824;2023-02-05T11:35:22;13.0;;;4.0;;
45382;SDS011;42455;51.660;5.824;2023-02-05T11:40:26;16.0;;;3.0;;
45382;SDS011;42455;51.660;5.824;2023-02-05T11:45:32;13.5;;;3.0;;
45382;SDS011;42455;51.660;5.824;2023-02-05T11:50:36;14.0;;;3.0;;
45382;SDS011;42455;51.660;5.824;2023-02-05T11:55:43;12.0;;;3.0;;
45382;SDS011;42455;51.660;5.824;2023-02-05T12:00:49;13.0;;;3.0;;
45382;SDS011;42455;51.660;5.824;2023-02-05T12:05:55;16.0;;;4.0;;
45382;SDS011;42455;51.660;5.824;2023-02-05T12:11:07;13.0;;;3.0;;
45382;SDS011;42455;51.660;5.824;2023-02-05T12:16:31;15.5;;;4.0;;
45382;SDS011;42455;51.660;5.824;2023-02-05T12:21:20;16.0;;;3.5;;
45382;SDS011;42455;51.660;5.824;2023-02-05T12:26:38;14.0;;;4.0;;
45382;SDS011;42455;51.660;5.824;2023-02-05T12:32:24;14.0;;;3.0;;
45382;SDS011;42455;51.660;5.824;2023-02-05T12:38:27;15.0;;;3.0;;
45382;SDS011;42455;51.660;5.824;2023-02-05T12:43:39;15.5;;;4.0;;
45382;SDS011;42455;51.660;5.824;2023-02-05T12:49:10;17.0;;;4.0;;
45382;SDS011;42455;51.660;5.824;2023-02-05T12:55:14;15.0;;;3.5;;
45382;SDS011;42455;51.660;5.824;2023-02-05T12:58:59;14.0;;;4.0;;
45382;SDS011;42455;51.660;5.824;2023-02-05T13:02:11;14.0;;;3.0;;
45382;SDS011;42455;51.660;5.824;2023-02-05T13:07:09;14.0;;;4.0;;
45382;SDS011;42455;51.660;5.824;2023-02-05T13:12:14;15.0;;;3.5;;
45382;SDS011;42455;51.660;5.824;2023-02-05T13:17:21;14.0;;;3.0;;
45382;SDS011;42455;51.660;5.824;2023-02-05T13:22:29;11.0;;;3.0;;
45382;SDS011;42455;51.660;5.824;2023-02-05T13:27:33;11.0;;;3.0;;
45382;SDS011;42455;51.660;5.824;2023-02-05T13:32:39;13.5;;;3.0;;
45382;SDS011;42455;51.660;5.824;2023-02-05T13:38:42;12.0;;;3.0;;
45382;SDS011;42455;51.660;5.824;2023-02-05T13:45:51;13.0;;;3.0;;
45382;SDS011;42455;51.660;5.824;2023-02-05T13:52:38;10.0;;;3.0;;
45382;SDS011;42455;51.660;5.824;2023-02-05T13:58:43;12.0;;;3.0;;
45382;SDS011;42455;51.660;5.824;2023-02-05T14:00:20;13.0;;;3.0;;
45382;SDS011;42455;51.660;5.824;2023-02-05T14:03:33;14.0;;;3.0;;
45382;SDS011;42455;51.660;5.824;2023-02-05T14:08:22;12.0;;;3.0;;
45382;SDS011;42455;51.660;5.824;2023-02-05T14:13:27;11.0;;;3.0;;
45382;SDS011;42455;51.660;5.824;2023-02-05T14:19:02;14.0;;;3.0;;
45382;SDS011;42455;51.660;5.824;2023-02-05T14:23:58;10.5;;;3.0;;
45382;SDS011;42455;51.660;5.824;2023-02-05T14:28:45;13.0;;;3.0;;
45382;SDS011;42455;51.660;5.824;2023-02-05T14:33:51;11.0;;;3.0;;
45382;SDS011;42455;51.660;5.824;2023-02-05T14:38:58;11.0;;;3.0;;
45382;SDS011;42455;51.660;5.824;2023-02-05T14:44:04;10.5;;;3.0;;
45382;SDS011;42455;51.660;5.824;2023-02-05T14:49:19;11.0;;;3.0;;
45382;SDS011;42455;51.660;5.824;2023-02-05T14:54:21;12.0;;;3.0;;
45382;SDS011;42455;51.660;5.824;2023-02-05T14:59:23;10.0;;;3.0;;
45382;SDS011;42455;51.660;5.824;2023-02-05T15:04:29;11.0;;;3.0;;
45382;SDS011;42455;51.660;5.824;2023-02-05T15:09:40;12.0;;;3.0;;
45382;SDS011;42455;51.660;5.824;2023-02-05T15:14:58;13.0;;;3.0;;
45382;SDS011;42455;51.660;5.824;2023-02-05T15:19:48;12.0;;;3.0;;
45382;SDS011;42455;51.660;5.824;2023-02-05T15:24:53;12.0;;;3.0;;
45382;SDS011;42455;51.660;5.824;2023-02-05T15:30:04;12.0;;;3.0;;
45382;SDS011;42455;51.660;5.824;2023-02-05T15:35:11;12.0;;;3.0;;
45382;SDS011;42455;51.660;5.824;2023-02-05T15:40:15;13.0;;;3.0;;
45382;SDS011;42455;51.660;5.824;2023-02-05T15:45:28;12.0;;;3.0;;
45382;SDS011;42455;51.660;5.824;2023-02-05T15:50:24;11.0;;;3.0;;
45382;SDS011;42455;51.660;5.824;2023-02-05T15:55:31;10.5;;;3.0;;
45382;SDS011;42455;51.660;5.824;2023-02-05T16:00:37;13.0;;;3.0;;
45382;SDS011;42455;51.660;5.824;2023-02-05T16:05:49;12.0;;;3.0;;
45382;SDS011;42455;51.660;5.824;2023-02-05T16:10:53;11.0;;;3.0;;
45382;SDS011;42455;51.660;5.824;2023-02-05T16:16:02;12.0;;;3.0;;
45382;SDS011;42455;51.660;5.824;2023-02-05T16:21:03;15.0;;;3.0;;
45382;SDS011;42455;51.660;5.824;2023-02-05T16:26:08;11.0;;;3.0;;
45382;SDS011;42455;51.660;5.824;2023-02-05T16:31:17;14.0;;;3.0;;
45382;SDS011;42455;51.660;5.824;2023-02-05T16:36:20;14.0;;;3.0;;
45382;SDS011;42455;51.660;5.824;2023-02-05T16:41:27;15.0;;;3.0;;
45382;SDS011;42455;51.660;5.824;2023-02-05T16:46:31;13.0;;;3.0;;
45382;SDS011;42455;51.660;5.824;2023-02-05T16:51:39;12.5;;;3.0;;
45382;SDS011;42455;51.660;5.824;2023-02-05T16:56:46;13.0;;;3.0;;
45382;SDS011;42455;51.660;5.824;2023-02-05T17:01:49;16.5;;;4.0;;
45382;SDS011;42455;51.660;5.824;2023-02-05T17:06:58;13.0;;;3.5;;
45382;SDS011;42455;51.660;5.824;2023-02-05T17:12:36;15.0;;;4.0;;
45382;SDS011;42455;51.660;5.824;2023-02-05T17:17:14;15.0;;;4.0;;
45382;SDS011;42455;51.660;5.824;2023-02-05T17:22:24;15.0;;;3.0;;
45382;SDS011;42455;51.660;5.824;2023-02-05T17:27:21;16.0;;;4.0;;
45382;SDS011;42455;51.660;5.824;2023-02-05T17:32:27;17.0;;;4.0;;
45382;SDS011;42455;51.660;5.824;2023-02-05T17:37:33;14.5;;;4.0;;
45382;SDS011;42455;51.660;5.824;2023-02-05T17:42:39;15.5;;;4.0;;
45382;SDS011;42455;51.660;5.824;2023-02-05T17:47:45;17.0;;;4.0;;
45382;SDS011;42455;51.660;5.824;2023-02-05T17:52:51;16.0;;;4.0;;
45382;SDS011;42455;51.660;5.824;2023-02-05T17:57:57;16.5;;;4.0;;
45382;SDS011;42455;51.660;5.824;2023-02-05T18:03:03;15.0;;;4.0;;
45382;SDS011;42455;51.660;5.824;2023-02-05T18:08:09;20.0;;;4.0;;
45382;SDS011;42455;51.660;5.824;2023-02-05T18:18:21;17.0;;;4.0;;
45382;SDS011;42455;51.660;5.824;2023-02-05T18:23:28;20.0;;;4.0;;
45382;SDS011;42455;51.660;5.824;2023-02-05T18:28:34;18.0;;;4.0;;
45382;SDS011;42455;51.660;5.824;2023-02-05T18:33:40;18.0;;;4.0;;
45382;SDS011;42455;51.660;5.824;2023-02-05T18:38:46;21.0;;;5.0;;
45382;SDS011;42455;51.660;5.824;2023-02-05T18:43:53;20.0;;;5.0;;
45382;SDS011;42455;51.660;5.824;2023-02-05T18:48:59;19.0;;;5.0;;
45382;SDS011;42455;51.660;5.824;2023-02-05T18:54:05;16.0;;;4.0;;
45382;SDS011;42455;51.660;5.824;2023-02-05T18:59:13;25.0;;;5.0;;
45382;SDS011;42455;51.660;5.824;2023-02-05T19:04:18;18.0;;;5.0;;
45382;SDS011;42455;51.660;5.824;2023-02-05T19:09:24;20.0;;;5.0;;
45382;SDS011;42455;51.660;5.824;2023-02-05T19:14:30;21.0;;;5.0;;
45382;SDS011;42455;51.660;5.824;2023-02-05T19:19:36;18.0;;;5.0;;
45382;SDS011;42455;51.660;5.824;2023-02-05T19:24:42;22.5;;;5.0;;
45382;SDS011;42455;51.660;5.824;2023-02-05T19:29:49;21.5;;;5.0;;
45382;SDS011;42455;51.660;5.824;2023-02-05T19:34:55;22.0;;;5.0;;
45382;SDS011;42455;51.660;5.824;2023-02-05T19:40:02;21.0;;;5.0;;
45382;SDS011;42455;51.660;5.824;2023-02-05T19:45:07;22.0;;;5.0;;
45382;SDS011;42455;51.660;5.824;2023-02-05T19:50:12;19.0;;;5.0;;
45382;SDS011;42455;51.660;5.824;2023-02-05T19:55:18;22.0;;;5.0;;
45382;SDS011;42455;51.660;5.824;2023-02-05T20:00:24;20.0;;;5.0;;
45382;SDS011;42455;51.660;5.824;2023-02-05T20:05:30;21.0;;;5.0;;
45382;SDS011;42455;51.660;5.824;2023-02-05T20:10:35;19.0;;;5.0;;
45382;SDS011;42455;51.660;5.824;2023-02-05T20:15:41;19.0;;;5.0;;
45382;SDS011;42455;51.660;5.824;2023-02-05T20:20:48;18.0;;;4.0;;
45382;SDS011;42455;51.660;5.824;2023-02-05T20:25:54;20.0;;;5.0;;
45382;SDS011;42455;51.660;5.824;2023-02-05T20:31:04;18.0;;;4.0;;
45382;SDS011;42455;51.660;5.824;2023-02-05T20:36:07;17.0;;;4.0;;
45382;SDS011;42455;51.660;5.824;2023-02-05T20:41:15;20.0;;;5.0;;
45382;SDS011;42455;51.660;5.824;2023-02-05T20:46:19;19.0;;;4.0;;
45382;SDS011;42455;51.660;5.824;2023-02-05T20:51:25;21.0;;;5.0;;
45382;SDS011;42455;51.660;5.824;2023-02-05T20:56:31;20.0;;;5.0;;
45382;SDS011;42455;51.660;5.824;2023-02-05T21:06:44;27.0;;;6.0;;
45382;SDS011;42455;51.660;5.824;2023-02-05T21:11:50;24.0;;;5.0;;
45382;SDS011;42455;51.660;5.824;2023-02-05T21:16:56;19.5;;;5.0;;
45382;SDS011;42455;51.660;5.824;2023-02-05T21:22:02;17.5;;;5.0;;
45382;SDS011;42455;51.660;5.824;2023-02-05T21:27:08;22.0;;;5.0;;
45382;SDS011;42455;51.660;5.824;2023-02-05T21:32:14;25.5;;;6.0;;
45382;SDS011;42455;51.660;5.824;2023-02-05T21:37:21;24.0;;;6.0;;
45382;SDS011;42455;51.660;5.824;2023-02-05T21:42:27;22.5;;;6.0;;
45382;SDS011;42455;51.660;5.824;2023-02-05T21:47:33;21.0;;;5.0;;
45382;SDS011;42455;51.660;5.824;2023-02-05T21:52:39;25.5;;;6.0;;
45382;SDS011;42455;51.660;5.824;2023-02-05T21:57:45;25.5;;;5.0;;
45382;SDS011;42455;51.660;5.824;2023-02-05T22:02:50;25.5;;;6.0;;
45382;SDS011;42455;51.660;5.824;2023-02-05T22:07:56;24.5;;;6.0;;
45382;SDS011;42455;51.660;5.824;2023-02-05T22:13:01;29.0;;;6.0;;
45382;SDS011;42455;51.660;5.824;2023-02-05T22:18:07;24.5;;;6.0;;
45382;SDS011;42455;51.660;5.824;2023-02-05T22:23:14;26.0;;;6.0;;
45382;SDS011;42455;51.660;5.824;2023-02-05T22:28:20;25.0;;;6.0;;
45382;SDS011;42455;51.660;5.824;2023-02-05T22:33:26;28.5;;;6.0;;
45382;SDS011;42455;51.660;5.824;2023-02-05T22:38:35;22.0;;;5.0;;
45382;SDS011;42455;51.660;5.824;2023-02-05T22:43:38;26.0;;;5.0;;
45382;SDS011;42455;51.660;5.824;2023-02-05T22:48:45;23.0;;;6.0;;
45382;SDS011;42455;51.660;5.824;2023-02-05T22:53:51;28.0;;;6.0;;
45382;SDS011;42455;51.660;5.824;2023-02-05T22:58:57;25.0;;;5.0;;
45382;SDS011;42455;51.660;5.824;2023-02-05T23:04:04;24.0;;;5.0;;
45382;SDS011;42455;51.660;5.824;2023-02-05T23:09:11;22.0;;;6.0;;
45382;SDS011;42455;51.660;5.824;2023-02-05T23:14:16;26.0;;;6.0;;
45382;SDS011;42455;51.660;5.824;2023-02-05T23:19:22;22.5;;;5.0;;
45382;SDS011;42455;51.660;5.824;2023-02-05T23:24:28;22.0;;;5.0;;
45382;SDS011;42455;51.660;5.824;2023-02-05T23:29:34;21.0;;;5.0;;
45382;SDS011;42455;51.660;5.824;2023-02-05T23:34:40;21.5;;;5.0;;
45382;SDS011;42455;51.660;5.824;2023-02-05T23:39:47;21.5;;;5.0;;
45382;SDS011;42455;51.660;5.824;2023-02-05T23:44:53;20.5;;;5.0;;
45382;SDS011;42455;51.660;5.824;2023-02-05T23:49:59;20.0;;;5.0;;
45382;SDS011;42455;51.660;5.824;2023-02-05T23:55:05;23.0;;;5.0;;
